sensor_id;sensor_type;location;lat;lon;timestamp;pressure;altitude;pressure_sealevel;temperature;humidity
64080;BME280;51042;49.696;10.808;2022-11-09T00:02:01;98126.69;;;8.17;100.00
64080;BME280;51042;49.696;10.808;2022-11-09T00:04:26;98120.28;;;8.07;100.00
64080;BME280;51042;49.696;10.808;2022-11-09T00:06:52;98122.31;;;8.03;100.00
64080;BME280;51042;49.696;10.808;2022-11-09T00:09:17;98135.47;;;7.92;100.00
64080;BME280;51042;49.696;10.808;2022-11-09T00:11:42;98123.56;;;7.83;100.00
64080;BME280;51042;49.696;10.808;2022-11-09T00:14:12;98117.91;;;7.73;100.00
64080;BME280;51042;49.696;10.808;2022-11-09T00:16:41;98128.56;;;7.68;100.00
64080;BME280;51042;49.696;10.808;2022-11-09T00:19:06;98120.50;;;7.61;100.00
64080;BME280;51042;49.696;10.808;2022-11-09T00:21:32;98115.09;;;7.57;100.00
64080;BME280;51042;49.696;10.808;2022-11-09T00:23:57;98112.19;;;7.48;100.00
64080;BME280;51042;49.696;10.808;2022-11-09T00:26:22;98110.13;;;7.52;100.00
64080;BME280;51042;49.696;10.808;2022-11-09T00:28:48;98099.81;;;7.44;100.00
64080;BME280;51042;49.696;10.808;2022-11-09T00:31:15;98107.63;;;7.42;100.00
64080;BME280;51042;49.696;10.808;2022-11-09T00:33:46;98109.31;;;7.35;100.00
64080;BME280;51042;49.696;10.808;2022-11-09T00:36:13;98103.94;;;7.32;100.00
64080;BME280;51042;49.696;10.808;2022-11-09T00:38:38;98111.84;;;7.26;100.00
64080;BME280;51042;49.696;10.808;2022-11-09T00:41:05;98114.75;;;7.16;100.00
64080;BME280;51042;49.696;10.808;2022-11-09T00:43:32;98125.84;;;7.09;100.00
64080;BME280;51042;49.696;10.808;2022-11-09T00:45:58;98134.56;;;7.00;100.00
64080;BME280;51042;49.696;10.808;2022-11-09T00:48:23;98138.13;;;6.97;100.00
64080;BME280;51042;49.696;10.808;2022-11-09T00:50:50;98126.00;;;6.98;100.00
64080;BME280;51042;49.696;10.808;2022-11-09T00:53:16;98129.50;;;6.98;100.00
64080;BME280;51042;49.696;10.808;2022-11-09T00:55:42;98127.56;;;6.99;100.00
64080;BME280;51042;49.696;10.808;2022-11-09T00:58:07;98126.38;;;7.00;100.00
64080;BME280;51042;49.696;10.808;2022-11-09T01:00:32;98115.03;;;7.02;100.00
64080;BME280;51042;49.696;10.808;2022-11-09T01:02:58;98096.09;;;7.14;100.00
64080;BME280;51042;49.696;10.808;2022-11-09T01:05:23;98099.03;;;7.23;100.00
64080;BME280;51042;49.696;10.808;2022-11-09T01:07:48;98083.78;;;7.26;100.00
64080;BME280;51042;49.696;10.808;2022-11-09T01:10:14;98089.25;;;7.26;100.00
64080;BME280;51042;49.696;10.808;2022-11-09T01:12:39;98080.97;;;7.29;100.00
64080;BME280;51042;49.696;10.808;2022-11-09T01:15:05;98104.34;;;7.30;100.00
64080;BME280;51042;49.696;10.808;2022-11-09T01:17:30;98095.94;;;7.21;100.00
64080;BME280;51042;49.696;10.808;2022-11-09T01:19:56;98080.78;;;7.20;100.00
64080;BME280;51042;49.696;10.808;2022-11-09T01:22:21;98090.06;;;7.23;100.00
64080;BME280;51042;49.696;10.808;2022-11-09T01:24:46;98102.13;;;7.25;100.00
64080;BME280;51042;49.696;10.808;2022-11-09T01:27:12;98091.88;;;7.29;100.00
64080;BME280;51042;49.696;10.808;2022-11-09T01:29:37;98093.63;;;7.39;100.00
64080;BME280;51042;49.696;10.808;2022-11-09T01:32:03;98096.22;;;7.47;100.00
64080;BME280;51042;49.696;10.808;2022-11-09T01:34:28;98087.97;;;7.50;100.00
64080;BME280;51042;49.696;10.808;2022-11-09T01:36:54;98075.41;;;7.53;100.00
64080;BME280;51042;49.696;10.808;2022-11-09T01:39:20;98081.88;;;7.62;100.00
64080;BME280;51042;49.696;10.808;2022-11-09T01:41:45;98088.78;;;7.67;100.00
64080;BME280;51042;49.696;10.808;2022-11-09T01:44:13;98077.78;;;7.70;100.00
64080;BME280;51042;49.696;10.808;2022-11-09T01:49:40;98079.94;;;7.79;100.00
64080;BME280;51042;49.696;10.808;2022-11-09T01:52:10;98085.94;;;7.90;100.00
64080;BME280;51042;49.696;10.808;2022-11-09T01:54:44;98091.38;;;7.90;100.00
64080;BME280;51042;49.696;10.808;2022-11-09T01:57:14;98099.66;;;7.87;100.00
64080;BME280;51042;49.696;10.808;2022-11-09T01:59:46;98106.38;;;7.82;100.00
64080;BME280;51042;49.696;10.808;2022-11-09T02:02:16;98100.66;;;7.76;100.00
64080;BME280;51042;49.696;10.808;2022-11-09T02:04:49;98098.84;;;7.70;100.00
64080;BME280;51042;49.696;10.808;2022-11-09T02:07:18;98094.75;;;7.62;100.00
64080;BME280;51042;49.696;10.808;2022-11-09T02:09:47;98097.63;;;7.55;100.00
64080;BME280;51042;49.696;10.808;2022-11-09T02:12:14;98094.13;;;7.54;100.00
64080;BME280;51042;49.696;10.808;2022-11-09T02:14:42;98103.91;;;7.52;100.00
64080;BME280;51042;49.696;10.808;2022-11-09T02:17:08;98095.81;;;7.48;100.00
64080;BME280;51042;49.696;10.808;2022-11-09T02:19:35;98093.84;;;7.49;100.00
64080;BME280;51042;49.696;10.808;2022-11-09T02:22:01;98093.44;;;7.50;100.00
64080;BME280;51042;49.696;10.808;2022-11-09T02:24:26;98089.06;;;7.53;100.00
64080;BME280;51042;49.696;10.808;2022-11-09T02:26:52;98093.25;;;7.57;100.00
64080;BME280;51042;49.696;10.808;2022-11-09T02:29:22;98095.94;;;7.61;100.00
64080;BME280;51042;49.696;10.808;2022-11-09T02:31:53;98096.63;;;7.65;100.00
64080;BME280;51042;49.696;10.808;2022-11-09T02:34:22;98101.56;;;7.70;100.00
64080;BME280;51042;49.696;10.808;2022-11-09T02:36:49;98102.28;;;7.74;100.00
64080;BME280;51042;49.696;10.808;2022-11-09T02:39:16;98094.78;;;7.78;100.00
64080;BME280;51042;49.696;10.808;2022-11-09T02:41:46;98095.47;;;7.82;100.00
64080;BME280;51042;49.696;10.808;2022-11-09T02:44:15;98095.72;;;7.88;100.00
64080;BME280;51042;49.696;10.808;2022-11-09T02:46:42;98087.47;;;7.91;100.00
64080;BME280;51042;49.696;10.808;2022-11-09T02:49:08;98092.06;;;7.94;100.00
64080;BME280;51042;49.696;10.808;2022-11-09T02:51:33;98091.25;;;7.97;100.00
64080;BME280;51042;49.696;10.808;2022-11-09T02:53:59;98090.06;;;7.98;100.00
64080;BME280;51042;49.696;10.808;2022-11-09T02:56:24;98095.06;;;8.00;100.00
64080;BME280;51042;49.696;10.808;2022-11-09T02:58:50;98100.53;;;8.00;100.00
64080;BME280;51042;49.696;10.808;2022-11-09T03:01:15;98099.69;;;8.03;100.00
64080;BME280;51042;49.696;10.808;2022-11-09T03:03:40;98109.34;;;8.07;100.00
64080;BME280;51042;49.696;10.808;2022-11-09T03:06:06;98113.22;;;8.10;100.00
64080;BME280;51042;49.696;10.808;2022-11-09T03:08:31;98118.56;;;8.13;100.00
64080;BME280;51042;49.696;10.808;2022-11-09T03:10:58;98111.06;;;8.17;100.00
64080;BME280;51042;49.696;10.808;2022-11-09T03:13:24;98119.59;;;8.19;100.00
64080;BME280;51042;49.696;10.808;2022-11-09T03:15:49;98116.09;;;8.19;100.00
64080;BME280;51042;49.696;10.808;2022-11-09T03:18:14;98119.59;;;8.19;100.00
64080;BME280;51042;49.696;10.808;2022-11-09T03:20:39;98109.88;;;8.18;100.00
64080;BME280;51042;49.696;10.808;2022-11-09T03:23:05;98105.28;;;8.15;100.00
64080;BME280;51042;49.696;10.808;2022-11-09T03:25:30;98117.38;;;8.14;100.00
64080;BME280;51042;49.696;10.808;2022-11-09T03:27:57;98127.56;;;8.14;100.00
64080;BME280;51042;49.696;10.808;2022-11-09T03:30:25;98125.91;;;8.16;100.00
64080;BME280;51042;49.696;10.808;2022-11-09T03:32:58;98132.84;;;8.21;100.00
64080;BME280;51042;49.696;10.808;2022-11-09T03:35:23;98122.25;;;8.23;100.00
64080;BME280;51042;49.696;10.808;2022-11-09T03:37:49;98130.44;;;8.23;100.00
64080;BME280;51042;49.696;10.808;2022-11-09T03:40:14;98130.91;;;8.22;100.00
64080;BME280;51042;49.696;10.808;2022-11-09T03:42:47;98130.13;;;8.21;100.00
64080;BME280;51042;49.696;10.808;2022-11-09T03:45:13;98127.81;;;8.19;100.00
64080;BME280;51042;49.696;10.808;2022-11-09T03:47:40;98125.50;;;8.18;100.00
64080;BME280;51042;49.696;10.808;2022-11-09T03:50:06;98120.03;;;8.18;100.00
64080;BME280;51042;49.696;10.808;2022-11-09T03:52:32;98111.06;;;8.17;100.00
64080;BME280;51042;49.696;10.808;2022-11-09T03:54:57;98095.16;;;8.12;100.00
64080;BME280;51042;49.696;10.808;2022-11-09T03:57:22;98101.81;;;8.11;100.00
64080;BME280;51042;49.696;10.808;2022-11-09T03:59:48;98100.28;;;8.10;100.00
64080;BME280;51042;49.696;10.808;2022-11-09T04:02:13;98115.94;;;8.10;100.00
64080;BME280;51042;49.696;10.808;2022-11-09T04:04:38;98124.03;;;8.13;100.00
64080;BME280;51042;49.696;10.808;2022-11-09T04:07:04;98130.28;;;8.14;100.00
64080;BME280;51042;49.696;10.808;2022-11-09T04:09:29;98130.34;;;8.10;100.00
64080;BME280;51042;49.696;10.808;2022-11-09T04:11:54;98128.47;;;8.07;100.00
64080;BME280;51042;49.696;10.808;2022-11-09T04:14:20;98130.44;;;8.07;100.00
64080;BME280;51042;49.696;10.808;2022-11-09T04:16:45;98135.91;;;8.07;100.00
64080;BME280;51042;49.696;10.808;2022-11-09T04:19:10;98131.56;;;8.09;100.00
64080;BME280;51042;49.696;10.808;2022-11-09T04:21:35;98134.97;;;8.13;100.00
64080;BME280;51042;49.696;10.808;2022-11-09T04:24:01;98130.97;;;8.18;100.00
64080;BME280;51042;49.696;10.808;2022-11-09T04:26:26;98126.25;;;8.18;100.00
64080;BME280;51042;49.696;10.808;2022-11-09T04:28:51;98137.19;;;8.18;100.00
64080;BME280;51042;49.696;10.808;2022-11-09T04:31:17;98139.50;;;8.20;100.00
64080;BME280;51042;49.696;10.808;2022-11-09T04:33:42;98144.88;;;8.24;100.00
64080;BME280;51042;49.696;10.808;2022-11-09T04:36:07;98158.03;;;8.29;100.00
64080;BME280;51042;49.696;10.808;2022-11-09T04:38:33;98147.88;;;8.29;100.00
64080;BME280;51042;49.696;10.808;2022-11-09T04:41:00;98143.16;;;8.33;100.00
64080;BME280;51042;49.696;10.808;2022-11-09T04:43:27;98137.25;;;8.35;100.00
64080;BME280;51042;49.696;10.808;2022-11-09T04:45:53;98131.34;;;8.36;100.00
64080;BME280;51042;49.696;10.808;2022-11-09T04:48:18;98137.50;;;8.40;100.00
64080;BME280;51042;49.696;10.808;2022-11-09T04:50:43;98151.53;;;8.42;100.00
64080;BME280;51042;49.696;10.808;2022-11-09T04:53:10;98153.47;;;8.42;100.00
64080;BME280;51042;49.696;10.808;2022-11-09T04:55:37;98152.72;;;8.41;100.00
64080;BME280;51042;49.696;10.808;2022-11-09T04:58:04;98160.06;;;8.44;100.00
64080;BME280;51042;49.696;10.808;2022-11-09T05:00:29;98155.28;;;8.48;100.00
64080;BME280;51042;49.696;10.808;2022-11-09T05:02:59;98152.13;;;8.50;100.00
64080;BME280;51042;49.696;10.808;2022-11-09T05:05:26;98157.19;;;8.51;100.00
64080;BME280;51042;49.696;10.808;2022-11-09T05:07:52;98147.75;;;8.52;100.00
64080;BME280;51042;49.696;10.808;2022-11-09T05:10:17;98165.81;;;8.50;100.00
64080;BME280;51042;49.696;10.808;2022-11-09T05:12:42;98158.78;;;8.49;100.00
64080;BME280;51042;49.696;10.808;2022-11-09T05:15:08;98167.41;;;8.47;100.00
64080;BME280;51042;49.696;10.808;2022-11-09T05:17:33;98171.34;;;8.46;100.00
64080;BME280;51042;49.696;10.808;2022-11-09T05:19:59;98167.84;;;8.46;100.00
64080;BME280;51042;49.696;10.808;2022-11-09T05:22:24;98179.63;;;8.43;100.00
64080;BME280;51042;49.696;10.808;2022-11-09T05:25:08;98182.78;;;8.41;100.00
64080;BME280;51042;49.696;10.808;2022-11-09T05:27:34;98187.84;;;8.43;100.00
64080;BME280;51042;49.696;10.808;2022-11-09T05:30:00;98179.63;;;8.43;100.00
64080;BME280;51042;49.696;10.808;2022-11-09T05:32:25;98180.91;;;8.38;100.00
64080;BME280;51042;49.696;10.808;2022-11-09T05:34:50;98188.34;;;8.38;100.00
64080;BME280;51042;49.696;10.808;2022-11-09T05:37:15;98202.03;;;8.38;100.00
64080;BME280;51042;49.696;10.808;2022-11-09T05:39:42;98200.81;;;8.39;100.00
64080;BME280;51042;49.696;10.808;2022-11-09T05:42:07;98208.25;;;8.38;100.00
64080;BME280;51042;49.696;10.808;2022-11-09T05:44:34;98206.34;;;8.35;100.00
64080;BME280;51042;49.696;10.808;2022-11-09T05:46:59;98201.34;;;8.34;100.00
64080;BME280;51042;49.696;10.808;2022-11-09T05:49:25;98200.22;;;8.31;100.00
64080;BME280;51042;49.696;10.808;2022-11-09T05:51:50;98201.41;;;8.30;100.00
64080;BME280;51042;49.696;10.808;2022-11-09T05:54:15;98199.03;;;8.32;100.00
64080;BME280;51042;49.696;10.808;2022-11-09T05:56:40;98196.72;;;8.31;100.00
64080;BME280;51042;49.696;10.808;2022-11-09T05:59:06;98195.56;;;8.28;100.00
64080;BME280;51042;49.696;10.808;2022-11-09T06:01:32;98185.06;;;8.27;100.00
64080;BME280;51042;49.696;10.808;2022-11-09T06:03:57;98186.16;;;8.29;100.00
64080;BME280;51042;49.696;10.808;2022-11-09T06:06:23;98184.66;;;8.28;100.00
64080;BME280;51042;49.696;10.808;2022-11-09T06:08:48;98188.97;;;8.26;100.00
64080;BME280;51042;49.696;10.808;2022-11-09T06:11:14;98191.72;;;8.26;100.00
64080;BME280;51042;49.696;10.808;2022-11-09T06:13:40;98193.69;;;8.25;100.00
64080;BME280;51042;49.696;10.808;2022-11-09T06:16:05;98180.44;;;8.24;100.00
64080;BME280;51042;49.696;10.808;2022-11-09T06:18:32;98180.09;;;8.22;100.00
64080;BME280;51042;49.696;10.808;2022-11-09T06:21:00;98192.22;;;8.20;100.00
64080;BME280;51042;49.696;10.808;2022-11-09T06:23:26;98189.50;;;8.20;100.00
64080;BME280;51042;49.696;10.808;2022-11-09T06:26:06;98185.97;;;8.20;100.00
64080;BME280;51042;49.696;10.808;2022-11-09T06:28:34;98184.44;;;8.19;100.00
64080;BME280;51042;49.696;10.808;2022-11-09T06:31:00;98187.59;;;8.17;100.00
64080;BME280;51042;49.696;10.808;2022-11-09T06:33:28;98197.75;;;8.17;100.00
64080;BME280;51042;49.696;10.808;2022-11-09T06:35:55;98201.59;;;8.19;100.00
64080;BME280;51042;49.696;10.808;2022-11-09T06:38:21;98200.00;;;8.22;100.00
64080;BME280;51042;49.696;10.808;2022-11-09T06:40:51;98210.84;;;8.26;100.00
64080;BME280;51042;49.696;10.808;2022-11-09T06:43:17;98202.56;;;8.29;100.00
64080;BME280;51042;49.696;10.808;2022-11-09T06:45:42;98208.03;;;8.29;100.00
64080;BME280;51042;49.696;10.808;2022-11-09T06:48:08;98217.38;;;8.32;100.00
64080;BME280;51042;49.696;10.808;2022-11-09T06:50:34;98203.72;;;8.32;100.00
64080;BME280;51042;49.696;10.808;2022-11-09T06:53:01;98211.91;;;8.32;100.00
64080;BME280;51042;49.696;10.808;2022-11-09T06:55:29;98211.53;;;8.30;100.00
64080;BME280;51042;49.696;10.808;2022-11-09T06:57:56;98214.66;;;8.32;100.00
64080;BME280;51042;49.696;10.808;2022-11-09T07:00:21;98220.47;;;8.34;100.00
64080;BME280;51042;49.696;10.808;2022-11-09T07:02:48;98219.63;;;8.37;100.00
64080;BME280;51042;49.696;10.808;2022-11-09T07:05:14;98220.81;;;8.36;100.00
64080;BME280;51042;49.696;10.808;2022-11-09T07:07:40;98214.50;;;8.39;100.00
64080;BME280;51042;49.696;10.808;2022-11-09T07:10:05;98222.25;;;8.40;100.00
64080;BME280;51042;49.696;10.808;2022-11-09T07:12:31;98215.59;;;8.41;100.00
64080;BME280;51042;49.696;10.808;2022-11-09T07:14:58;98213.22;;;8.43;100.00
64080;BME280;51042;49.696;10.808;2022-11-09T07:17:24;98210.06;;;8.45;100.00
64080;BME280;51042;49.696;10.808;2022-11-09T07:19:49;98218.19;;;8.48;100.00
64080;BME280;51042;49.696;10.808;2022-11-09T07:22:14;98219.72;;;8.49;100.00
64080;BME280;51042;49.696;10.808;2022-11-09T07:24:40;98219.31;;;8.51;100.00
64080;BME280;51042;49.696;10.808;2022-11-09T07:27:05;98231.78;;;8.52;100.00
64080;BME280;51042;49.696;10.808;2022-11-09T07:29:30;98231.78;;;8.52;100.00
64080;BME280;51042;49.696;10.808;2022-11-09T07:31:56;98235.25;;;8.52;100.00
64080;BME280;51042;49.696;10.808;2022-11-09T07:34:21;98240.00;;;8.52;100.00
64080;BME280;51042;49.696;10.808;2022-11-09T07:36:46;98246.22;;;8.52;100.00
64080;BME280;51042;49.696;10.808;2022-11-09T07:39:12;98256.72;;;8.54;100.00
64080;BME280;51042;49.696;10.808;2022-11-09T07:41:37;98247.25;;;8.58;100.00
64080;BME280;51042;49.696;10.808;2022-11-09T07:44:02;98243.25;;;8.63;100.00
64080;BME280;51042;49.696;10.808;2022-11-09T07:46:28;98249.81;;;8.66;100.00
64080;BME280;51042;49.696;10.808;2022-11-09T07:48:53;98245.47;;;8.68;100.00
64080;BME280;51042;49.696;10.808;2022-11-09T07:51:19;98252.03;;;8.71;100.00
64080;BME280;51042;49.696;10.808;2022-11-09T07:53:44;98242.22;;;8.73;100.00
64080;BME280;51042;49.696;10.808;2022-11-09T07:56:10;98242.50;;;8.79;100.00
64080;BME280;51042;49.696;10.808;2022-11-09T07:58:35;98244.47;;;8.78;100.00
64080;BME280;51042;49.696;10.808;2022-11-09T08:01:00;98246.84;;;8.76;100.00
64080;BME280;51042;49.696;10.808;2022-11-09T08:03:30;98259.31;;;8.77;100.00
64080;BME280;51042;49.696;10.808;2022-11-09T08:05:55;98265.16;;;8.79;100.00
64080;BME280;51042;49.696;10.808;2022-11-09T08:08:21;98273.63;;;8.85;100.00
64080;BME280;51042;49.696;10.808;2022-11-09T08:10:47;98273.88;;;8.90;100.00
64080;BME280;51042;49.696;10.808;2022-11-09T08:13:16;98261.81;;;8.88;100.00
64080;BME280;51042;49.696;10.808;2022-11-09T08:15:41;98273.97;;;8.87;100.00
64080;BME280;51042;49.696;10.808;2022-11-09T08:18:09;98263.44;;;8.85;100.00
64080;BME280;51042;49.696;10.808;2022-11-09T08:20:36;98269.94;;;8.91;100.00
64080;BME280;51042;49.696;10.808;2022-11-09T08:23:02;98276.97;;;8.92;100.00
64080;BME280;51042;49.696;10.808;2022-11-09T08:25:28;98283.91;;;8.97;100.00
64080;BME280;51042;49.696;10.808;2022-11-09T08:27:56;98273.56;;;9.05;100.00
64080;BME280;51042;49.696;10.808;2022-11-09T08:30:22;98273.34;;;9.12;100.00
64080;BME280;51042;49.696;10.808;2022-11-09T08:32:48;98285.16;;;9.25;100.00
64080;BME280;51042;49.696;10.808;2022-11-09T08:35:15;98291.16;;;9.36;100.00
64080;BME280;51042;49.696;10.808;2022-11-09T08:37:43;98293.72;;;9.43;100.00
64080;BME280;51042;49.696;10.808;2022-11-09T08:40:10;98287.03;;;9.44;100.00
64080;BME280;51042;49.696;10.808;2022-11-09T08:42:36;98285.84;;;9.45;100.00
64080;BME280;51042;49.696;10.808;2022-11-09T08:45:01;98293.13;;;9.52;100.00
64080;BME280;51042;49.696;10.808;2022-11-09T08:47:27;98294.06;;;9.45;100.00
64080;BME280;51042;49.696;10.808;2022-11-09T08:49:53;98298.34;;;9.46;100.00
64080;BME280;51042;49.696;10.808;2022-11-09T08:52:18;98301.84;;;9.47;100.00
64080;BME280;51042;49.696;10.808;2022-11-09T08:54:44;98298.53;;;9.39;100.00
64080;BME280;51042;49.696;10.808;2022-11-09T08:57:09;98302.03;;;9.39;100.00
64080;BME280;51042;49.696;10.808;2022-11-09T08:59:34;98298.16;;;9.37;100.00
64080;BME280;51042;49.696;10.808;2022-11-09T09:02:00;98294.59;;;9.40;100.00
64080;BME280;51042;49.696;10.808;2022-11-09T09:04:25;98294.41;;;9.47;100.00
64080;BME280;51042;49.696;10.808;2022-11-09T09:06:51;98287.63;;;9.52;100.00
64080;BME280;51042;49.696;10.808;2022-11-09T09:09:17;98288.47;;;9.49;100.00
64080;BME280;51042;49.696;10.808;2022-11-09T09:11:42;98290.91;;;9.47;100.00
64080;BME280;51042;49.696;10.808;2022-11-09T09:14:08;98296.38;;;9.47;100.00
64080;BME280;51042;49.696;10.808;2022-11-09T09:16:33;98284.31;;;9.44;100.00
64080;BME280;51042;49.696;10.808;2022-11-09T09:18:58;98283.78;;;9.49;100.00
64080;BME280;51042;49.696;10.808;2022-11-09T09:21:24;98285.22;;;9.54;100.00
64080;BME280;51042;49.696;10.808;2022-11-09T09:23:49;98286.06;;;9.67;100.00
64080;BME280;51042;49.696;10.808;2022-11-09T09:26:15;98281.84;;;9.78;100.00
64080;BME280;51042;49.696;10.808;2022-11-09T09:28:41;98280.81;;;10.01;100.00
64080;BME280;51042;49.696;10.808;2022-11-09T09:31:06;98288.16;;;10.20;100.00
64080;BME280;51042;49.696;10.808;2022-11-09T09:33:32;98297.72;;;10.29;100.00
64080;BME280;51042;49.696;10.808;2022-11-09T09:35:57;98289.38;;;10.32;100.00
64080;BME280;51042;49.696;10.808;2022-11-09T09:38:23;98289.16;;;10.27;100.00
64080;BME280;51042;49.696;10.808;2022-11-09T09:43:35;98294.22;;;10.28;100.00
64080;BME280;51042;49.696;10.808;2022-11-09T09:46:05;98292.34;;;10.38;100.00
64080;BME280;51042;49.696;10.808;2022-11-09T09:48:44;98283.59;;;10.55;100.00
64080;BME280;51042;49.696;10.808;2022-11-09T09:51:37;98283.72;;;10.64;100.00
64080;BME280;51042;49.696;10.808;2022-11-09T09:54:26;98273.63;;;10.61;100.00
64080;BME280;51042;49.696;10.808;2022-11-09T09:56:57;98272.84;;;10.74;100.00
64080;BME280;51042;49.696;10.808;2022-11-09T09:59:40;98274.38;;;10.62;100.00
64080;BME280;51042;49.696;10.808;2022-11-09T10:04:47;98260.25;;;10.76;100.00
64080;BME280;51042;49.696;10.808;2022-11-09T10:07:17;98273.41;;;10.94;100.00
64080;BME280;51042;49.696;10.808;2022-11-09T10:15:26;98263.06;;;11.58;100.00
64080;BME280;51042;49.696;10.808;2022-11-09T10:20:55;98255.56;;;11.71;100.00
64080;BME280;51042;49.696;10.808;2022-11-09T10:26:38;98257.41;;;11.74;100.00
64080;BME280;51042;49.696;10.808;2022-11-09T10:29:26;98260.88;;;11.87;100.00
64080;BME280;51042;49.696;10.808;2022-11-09T10:32:20;98274.00;;;12.05;100.00
64080;BME280;51042;49.696;10.808;2022-11-09T10:34:54;98268.31;;;11.99;100.00
64080;BME280;51042;49.696;10.808;2022-11-09T10:37:38;98259.75;;;11.97;100.00
64080;BME280;51042;49.696;10.808;2022-11-09T10:42:56;98250.34;;;12.07;100.00
64080;BME280;51042;49.696;10.808;2022-11-09T10:47:54;98266.91;;;12.38;100.00
64080;BME280;51042;49.696;10.808;2022-11-09T10:50:27;98259.31;;;12.51;100.00
64080;BME280;51042;49.696;10.808;2022-11-09T10:53:18;98252.75;;;12.49;100.00
64080;BME280;51042;49.696;10.808;2022-11-09T10:58:30;98252.41;;;12.47;100.00
64080;BME280;51042;49.696;10.808;2022-11-09T11:01:19;98254.28;;;12.50;100.00
64080;BME280;51042;49.696;10.808;2022-11-09T11:03:54;98245.16;;;12.62;100.00
64080;BME280;51042;49.696;10.808;2022-11-09T11:08:46;98247.50;;;12.73;100.00
64080;BME280;51042;49.696;10.808;2022-11-09T11:13:44;98249.72;;;12.96;100.00
64080;BME280;51042;49.696;10.808;2022-11-09T11:16:14;98248.25;;;13.13;100.00
64080;BME280;51042;49.696;10.808;2022-11-09T11:18:42;98239.09;;;13.16;100.00
64080;BME280;51042;49.696;10.808;2022-11-09T11:21:14;98250.13;;;13.16;100.00
64080;BME280;51042;49.696;10.808;2022-11-09T11:23:41;98233.88;;;13.18;100.00
64080;BME280;51042;49.696;10.808;2022-11-09T11:28:48;98231.03;;;13.58;100.00
64080;BME280;51042;49.696;10.808;2022-11-09T11:31:19;98225.34;;;13.71;97.92
64080;BME280;51042;49.696;10.808;2022-11-09T11:33:45;98221.13;;;14.39;97.37
64080;BME280;51042;49.696;10.808;2022-11-09T11:36:17;98215.03;;;14.68;95.14
64080;BME280;51042;49.696;10.808;2022-11-09T11:38:56;98219.72;;;14.53;91.62
64080;BME280;51042;49.696;10.808;2022-11-09T11:41:45;98211.25;;;14.56;93.20
64080;BME280;51042;49.696;10.808;2022-11-09T11:58:57;98199.59;;;16.39;84.71
64080;BME280;51042;49.696;10.808;2022-11-09T12:01:34;98196.47;;;16.31;81.61
64080;BME280;51042;49.696;10.808;2022-11-09T12:09:43;98188.22;;;16.66;82.60
64080;BME280;51042;49.696;10.808;2022-11-09T12:12:30;98180.38;;;16.80;81.82
64080;BME280;51042;49.696;10.808;2022-11-09T12:20:26;98164.84;;;16.23;81.13
64080;BME280;51042;49.696;10.808;2022-11-09T12:26:08;98161.13;;;15.97;83.28
64080;BME280;51042;49.696;10.808;2022-11-09T12:28:56;98154.75;;;16.20;82.79
64080;BME280;51042;49.696;10.808;2022-11-09T12:31:43;98160.56;;;16.37;82.53
64080;BME280;51042;49.696;10.808;2022-11-09T12:34:22;98159.97;;;16.33;81.24
64080;BME280;51042;49.696;10.808;2022-11-09T12:39:42;98167.06;;;16.19;81.43
64080;BME280;51042;49.696;10.808;2022-11-09T12:42:19;98158.38;;;16.12;81.96
64080;BME280;51042;49.696;10.808;2022-11-09T12:44:55;98168.78;;;15.87;82.59
64080;BME280;51042;49.696;10.808;2022-11-09T12:47:35;98173.34;;;15.76;83.53
64080;BME280;51042;49.696;10.808;2022-11-09T12:50:05;98164.47;;;15.86;83.67
64080;BME280;51042;49.696;10.808;2022-11-09T12:52:37;98168.97;;;15.99;83.96
64080;BME280;51042;49.696;10.808;2022-11-09T12:55:03;98167.81;;;16.05;83.21
64080;BME280;51042;49.696;10.808;2022-11-09T12:57:30;98155.97;;;15.75;82.39
64080;BME280;51042;49.696;10.808;2022-11-09T12:59:57;98162.75;;;15.36;83.87
64080;BME280;51042;49.696;10.808;2022-11-09T13:05:05;98162.59;;;15.16;86.44
64080;BME280;51042;49.696;10.808;2022-11-09T13:07:50;98149.72;;;15.13;86.60
64080;BME280;51042;49.696;10.808;2022-11-09T13:10:34;98150.06;;;15.05;86.31
64080;BME280;51042;49.696;10.808;2022-11-09T13:15:35;98161.94;;;14.97;87.95
64080;BME280;51042;49.696;10.808;2022-11-09T13:18:21;98157.78;;;15.01;87.14
64080;BME280;51042;49.696;10.808;2022-11-09T13:20:56;98163.22;;;15.10;87.48
64080;BME280;51042;49.696;10.808;2022-11-09T13:23:53;98161.88;;;15.06;86.84
64080;BME280;51042;49.696;10.808;2022-11-09T13:42:59;98164.22;;;14.98;88.36
64080;BME280;51042;49.696;10.808;2022-11-09T13:45:47;98173.47;;;14.95;88.95
64080;BME280;51042;49.696;10.808;2022-11-09T13:48:29;98166.00;;;14.87;89.33
64080;BME280;51042;49.696;10.808;2022-11-09T13:51:22;98187.53;;;14.74;89.51
64080;BME280;51042;49.696;10.808;2022-11-09T14:03:55;98188.53;;;14.61;92.35
64080;BME280;51042;49.696;10.808;2022-11-09T14:06:21;98191.75;;;14.60;92.57
64080;BME280;51042;49.696;10.808;2022-11-09T14:08:48;98188.56;;;14.52;92.48
64080;BME280;51042;49.696;10.808;2022-11-09T14:13:59;98200.72;;;14.46;93.17
64080;BME280;51042;49.696;10.808;2022-11-09T14:16:48;98196.88;;;14.43;93.73
64080;BME280;51042;49.696;10.808;2022-11-09T14:19:19;98202.69;;;14.36;93.96
64080;BME280;51042;49.696;10.808;2022-11-09T14:21:52;98206.84;;;14.31;94.48
64080;BME280;51042;49.696;10.808;2022-11-09T14:24:19;98213.47;;;14.25;94.94
64080;BME280;51042;49.696;10.808;2022-11-09T14:29:45;98211.50;;;14.16;95.95
64080;BME280;51042;49.696;10.808;2022-11-09T14:32:23;98210.88;;;14.12;96.46
64080;BME280;51042;49.696;10.808;2022-11-09T14:34:49;98208.59;;;14.11;96.86
64080;BME280;51042;49.696;10.808;2022-11-09T14:37:14;98206.47;;;14.06;97.02
64080;BME280;51042;49.696;10.808;2022-11-09T14:39:40;98206.16;;;14.04;97.38